sensor_id;sensor_type;location;lat;lon;timestamp;P1;durP1;ratioP1;P2;durP2;ratioP2
76574;SDS011;65439;50.948;6.988;2022-12-18T00:00:39;13.38;;;8.35;;
76574;SDS011;65439;50.948;6.988;2022-12-18T00:03:08;11.80;;;7.18;;
76574;SDS011;65439;50.948;6.988;2022-12-18T00:05:33;19.13;;;8.65;;
76574;SDS011;65439;50.948;6.988;2022-12-18T00:07:58;13.60;;;7.37;;
76574;SDS011;65439;50.948;6.988;2022-12-18T00:10:24;19.10;;;9.30;;
76574;SDS011;65439;50.948;6.988;2022-12-18T00:12:49;17.30;;;9.23;;
76574;SDS011;65439;50.948;6.988;2022-12-18T00:15:14;12.48;;;8.57;;
76574;SDS011;65439;50.948;6.988;2022-12-18T00:17:40;18.30;;;7.85;;
76574;SDS011;65439;50.948;6.988;2022-12-18T00:20:05;16.17;;;9.03;;
76574;SDS011;65439;50.948;6.988;2022-12-18T00:22:31;15.70;;;8.27;;
76574;SDS011;65439;50.948;6.988;2022-12-18T00:24:56;16.70;;;7.63;;
76574;SDS011;65439;50.948;6.988;2022-12-18T00:27:22;18.33;;;9.17;;
76574;SDS011;65439;50.948;6.988;2022-12-18T00:29:47;16.30;;;9.40;;
76574;SDS011;65439;50.948;6.988;2022-12-18T00:32:13;19.73;;;10.63;;
76574;SDS011;65439;50.948;6.988;2022-12-18T00:34:38;18.80;;;10.18;;
76574;SDS011;65439;50.948;6.988;2022-12-18T00:37:03;15.33;;;8.50;;
76574;SDS011;65439;50.948;6.988;2022-12-18T00:39:29;14.70;;;8.93;;
76574;SDS011;65439;50.948;6.988;2022-12-18T00:41:54;14.17;;;7.53;;
76574;SDS011;65439;50.948;6.988;2022-12-18T00:44:38;16.40;;;7.30;;
76574;SDS011;65439;50.948;6.988;2022-12-18T00:47:03;14.40;;;7.67;;
76574;SDS011;65439;50.948;6.988;2022-12-18T00:49:29;15.82;;;9.65;;
76574;SDS011;65439;50.948;6.988;2022-12-18T00:51:54;15.32;;;7.82;;
76574;SDS011;65439;50.948;6.988;2022-12-18T00:54:20;15.82;;;7.43;;
76574;SDS011;65439;50.948;6.988;2022-12-18T00:56:45;8.93;;;5.13;;
76574;SDS011;65439;50.948;6.988;2022-12-18T00:59:14;18.47;;;10.50;;
76574;SDS011;65439;50.948;6.988;2022-12-18T01:01:40;17.80;;;8.82;;
76574;SDS011;65439;50.948;6.988;2022-12-18T01:04:05;19.77;;;9.40;;
76574;SDS011;65439;50.948;6.988;2022-12-18T01:06:30;16.77;;;9.73;;
76574;SDS011;65439;50.948;6.988;2022-12-18T01:08:56;22.20;;;10.03;;
76574;SDS011;65439;50.948;6.988;2022-12-18T01:11:22;17.48;;;7.88;;
76574;SDS011;65439;50.948;6.988;2022-12-18T01:13:48;14.45;;;8.55;;
76574;SDS011;65439;50.948;6.988;2022-12-18T01:16:14;12.35;;;7.60;;
76574;SDS011;65439;50.948;6.988;2022-12-18T01:18:40;15.63;;;7.60;;
76574;SDS011;65439;50.948;6.988;2022-12-18T01:21:09;13.32;;;6.78;;
76574;SDS011;65439;50.948;6.988;2022-12-18T01:23:36;16.48;;;8.10;;
76574;SDS011;65439;50.948;6.988;2022-12-18T01:26:06;15.30;;;7.55;;
76574;SDS011;65439;50.948;6.988;2022-12-18T01:28:33;19.90;;;9.77;;
76574;SDS011;65439;50.948;6.988;2022-12-18T01:31:08;15.07;;;8.52;;
76574;SDS011;65439;50.948;6.988;2022-12-18T01:33:44;17.98;;;9.52;;
76574;SDS011;65439;50.948;6.988;2022-12-18T01:36:17;24.65;;;10.95;;
76574;SDS011;65439;50.948;6.988;2022-12-18T01:38:48;17.52;;;9.27;;
76574;SDS011;65439;50.948;6.988;2022-12-18T01:41:14;14.73;;;8.98;;
76574;SDS011;65439;50.948;6.988;2022-12-18T01:43:48;11.70;;;8.40;;
76574;SDS011;65439;50.948;6.988;2022-12-18T01:46:16;12.68;;;8.32;;
76574;SDS011;65439;50.948;6.988;2022-12-18T01:48:42;17.30;;;10.27;;
76574;SDS011;65439;50.948;6.988;2022-12-18T01:51:08;13.85;;;7.93;;
76574;SDS011;65439;50.948;6.988;2022-12-18T01:53:34;14.20;;;7.60;;
76574;SDS011;65439;50.948;6.988;2022-12-18T01:56:01;16.23;;;8.35;;
76574;SDS011;65439;50.948;6.988;2022-12-18T01:58:30;11.13;;;7.55;;
76574;SDS011;65439;50.948;6.988;2022-12-18T02:01:01;15.90;;;9.25;;
76574;SDS011;65439;50.948;6.988;2022-12-18T02:03:26;18.63;;;9.23;;
76574;SDS011;65439;50.948;6.988;2022-12-18T02:08:34;19.30;;;10.48;;
76574;SDS011;65439;50.948;6.988;2022-12-18T02:16:29;8.93;;;6.85;;
76574;SDS011;65439;50.948;6.988;2022-12-18T02:19:04;11.45;;;7.82;;
76574;SDS011;65439;50.948;6.988;2022-12-18T02:24:44;17.58;;;9.00;;
76574;SDS011;65439;50.948;6.988;2022-12-18T02:27:18;17.63;;;8.52;;
76574;SDS011;65439;50.948;6.988;2022-12-18T02:29:46;14.05;;;7.57;;
76574;SDS011;65439;50.948;6.988;2022-12-18T02:32:16;16.27;;;7.97;;
76574;SDS011;65439;50.948;6.988;2022-12-18T02:34:45;17.50;;;9.43;;
76574;SDS011;65439;50.948;6.988;2022-12-18T02:37:12;15.95;;;7.75;;
76574;SDS011;65439;50.948;6.988;2022-12-18T02:39:41;16.58;;;8.30;;
76574;SDS011;65439;50.948;6.988;2022-12-18T02:42:08;14.52;;;7.97;;
76574;SDS011;65439;50.948;6.988;2022-12-18T02:44:44;13.80;;;8.18;;
76574;SDS011;65439;50.948;6.988;2022-12-18T02:47:11;15.63;;;7.95;;
76574;SDS011;65439;50.948;6.988;2022-12-18T02:49:44;14.05;;;7.53;;
76574;SDS011;65439;50.948;6.988;2022-12-18T02:52:24;11.20;;;6.97;;
76574;SDS011;65439;50.948;6.988;2022-12-18T02:57:46;13.95;;;6.70;;
76574;SDS011;65439;50.948;6.988;2022-12-18T03:00:16;12.65;;;8.27;;
76574;SDS011;65439;50.948;6.988;2022-12-18T03:05:39;13.77;;;7.35;;
76574;SDS011;65439;50.948;6.988;2022-12-18T03:08:15;14.10;;;9.80;;
76574;SDS011;65439;50.948;6.988;2022-12-18T03:10:54;14.10;;;8.20;;
76574;SDS011;65439;50.948;6.988;2022-12-18T03:13:56;18.45;;;8.20;;
76574;SDS011;65439;50.948;6.988;2022-12-18T03:18:51;10.30;;;6.95;;
76574;SDS011;65439;50.948;6.988;2022-12-18T03:21:20;16.58;;;8.13;;
76574;SDS011;65439;50.948;6.988;2022-12-18T03:23:48;17.67;;;8.45;;
76574;SDS011;65439;50.948;6.988;2022-12-18T03:26:15;15.57;;;9.07;;
76574;SDS011;65439;50.948;6.988;2022-12-18T03:31:09;15.02;;;7.50;;
76574;SDS011;65439;50.948;6.988;2022-12-18T03:33:37;16.88;;;9.65;;
76574;SDS011;65439;50.948;6.988;2022-12-18T03:36:06;14.27;;;7.85;;
76574;SDS011;65439;50.948;6.988;2022-12-18T03:38:32;11.70;;;8.88;;
76574;SDS011;65439;50.948;6.988;2022-12-18T03:41:07;15.48;;;9.63;;
76574;SDS011;65439;50.948;6.988;2022-12-18T03:46:28;15.77;;;7.47;;
76574;SDS011;65439;50.948;6.988;2022-12-18T03:48:59;16.83;;;8.77;;
76574;SDS011;65439;50.948;6.988;2022-12-18T03:51:31;14.02;;;9.73;;
76574;SDS011;65439;50.948;6.988;2022-12-18T03:54:02;22.05;;;9.63;;
76574;SDS011;65439;50.948;6.988;2022-12-18T03:56:29;16.77;;;7.82;;
76574;SDS011;65439;50.948;6.988;2022-12-18T03:58:59;15.73;;;8.13;;
76574;SDS011;65439;50.948;6.988;2022-12-18T04:01:28;16.77;;;9.55;;
76574;SDS011;65439;50.948;6.988;2022-12-18T04:03:56;14.60;;;8.05;;
76574;SDS011;65439;50.948;6.988;2022-12-18T04:06:23;15.18;;;8.60;;
76574;SDS011;65439;50.948;6.988;2022-12-18T04:08:49;11.52;;;7.38;;
76574;SDS011;65439;50.948;6.988;2022-12-18T04:11:14;16.48;;;8.00;;
76574;SDS011;65439;50.948;6.988;2022-12-18T04:13:41;18.02;;;9.48;;
76574;SDS011;65439;50.948;6.988;2022-12-18T04:16:07;15.38;;;8.30;;
76574;SDS011;65439;50.948;6.988;2022-12-18T04:18:34;15.07;;;10.18;;
76574;SDS011;65439;50.948;6.988;2022-12-18T04:21:00;14.25;;;8.25;;
76574;SDS011;65439;50.948;6.988;2022-12-18T04:23:25;16.42;;;9.13;;
76574;SDS011;65439;50.948;6.988;2022-12-18T04:25:50;17.53;;;9.83;;
76574;SDS011;65439;50.948;6.988;2022-12-18T04:28:15;11.03;;;5.73;;
76574;SDS011;65439;50.948;6.988;2022-12-18T04:30:41;16.67;;;7.23;;
76574;SDS011;65439;50.948;6.988;2022-12-18T04:33:10;16.40;;;8.13;;
76574;SDS011;65439;50.948;6.988;2022-12-18T04:35:35;12.43;;;8.48;;
76574;SDS011;65439;50.948;6.988;2022-12-18T04:38:01;18.30;;;8.63;;
76574;SDS011;65439;50.948;6.988;2022-12-18T04:40:26;18.10;;;9.80;;
76574;SDS011;65439;50.948;6.988;2022-12-18T04:42:51;13.53;;;7.13;;
76574;SDS011;65439;50.948;6.988;2022-12-18T04:45:17;18.83;;;9.10;;
76574;SDS011;65439;50.948;6.988;2022-12-18T04:47:42;16.40;;;8.27;;
76574;SDS011;65439;50.948;6.988;2022-12-18T04:50:07;16.38;;;8.02;;
76574;SDS011;65439;50.948;6.988;2022-12-18T04:52:33;10.98;;;6.85;;
76574;SDS011;65439;50.948;6.988;2022-12-18T04:54:58;12.87;;;6.93;;
76574;SDS011;65439;50.948;6.988;2022-12-18T04:57:23;12.70;;;8.10;;
76574;SDS011;65439;50.948;6.988;2022-12-18T04:59:49;14.00;;;6.93;;
76574;SDS011;65439;50.948;6.988;2022-12-18T05:02:14;11.55;;;7.38;;
76574;SDS011;65439;50.948;6.988;2022-12-18T05:04:39;17.27;;;8.00;;
76574;SDS011;65439;50.948;6.988;2022-12-18T05:07:05;10.20;;;5.47;;
76574;SDS011;65439;50.948;6.988;2022-12-18T05:09:30;15.48;;;7.28;;
76574;SDS011;65439;50.948;6.988;2022-12-18T05:11:55;15.67;;;6.90;;
76574;SDS011;65439;50.948;6.988;2022-12-18T05:14:20;13.60;;;6.33;;
76574;SDS011;65439;50.948;6.988;2022-12-18T05:16:46;11.33;;;6.87;;
76574;SDS011;65439;50.948;6.988;2022-12-18T05:19:11;14.07;;;7.00;;
76574;SDS011;65439;50.948;6.988;2022-12-18T05:21:37;10.05;;;7.15;;
76574;SDS011;65439;50.948;6.988;2022-12-18T05:24:02;15.40;;;7.47;;
76574;SDS011;65439;50.948;6.988;2022-12-18T05:26:27;11.40;;;7.72;;
76574;SDS011;65439;50.948;6.988;2022-12-18T05:28:53;12.00;;;7.38;;
76574;SDS011;65439;50.948;6.988;2022-12-18T05:31:18;15.05;;;9.30;;
76574;SDS011;65439;50.948;6.988;2022-12-18T05:33:43;10.87;;;5.73;;
76574;SDS011;65439;50.948;6.988;2022-12-18T05:36:09;12.77;;;7.35;;
76574;SDS011;65439;50.948;6.988;2022-12-18T05:38:35;16.35;;;8.00;;
76574;SDS011;65439;50.948;6.988;2022-12-18T05:43:27;9.43;;;5.10;;
76574;SDS011;65439;50.948;6.988;2022-12-18T05:45:54;15.63;;;7.07;;
76574;SDS011;65439;50.948;6.988;2022-12-18T05:48:19;11.77;;;6.57;;
76574;SDS011;65439;50.948;6.988;2022-12-18T05:50:45;13.43;;;8.15;;
76574;SDS011;65439;50.948;6.988;2022-12-18T05:53:12;6.65;;;4.35;;
76574;SDS011;65439;50.948;6.988;2022-12-18T05:55:39;14.02;;;7.03;;
76574;SDS011;65439;50.948;6.988;2022-12-18T05:58:06;15.80;;;9.82;;
76574;SDS011;65439;50.948;6.988;2022-12-18T06:00:32;12.65;;;7.15;;
76574;SDS011;65439;50.948;6.988;2022-12-18T06:02:59;14.45;;;6.93;;
76574;SDS011;65439;50.948;6.988;2022-12-18T06:05:25;17.15;;;8.60;;
76574;SDS011;65439;50.948;6.988;2022-12-18T06:07:50;17.55;;;9.07;;
76574;SDS011;65439;50.948;6.988;2022-12-18T06:10:15;14.80;;;8.95;;
76574;SDS011;65439;50.948;6.988;2022-12-18T06:12:41;12.73;;;7.65;;
76574;SDS011;65439;50.948;6.988;2022-12-18T06:15:06;13.47;;;8.37;;
76574;SDS011;65439;50.948;6.988;2022-12-18T06:17:32;7.13;;;5.47;;
76574;SDS011;65439;50.948;6.988;2022-12-18T06:19:58;15.05;;;7.28;;
76574;SDS011;65439;50.948;6.988;2022-12-18T06:22:23;16.05;;;9.10;;
76574;SDS011;65439;50.948;6.988;2022-12-18T06:24:49;13.68;;;7.97;;
76574;SDS011;65439;50.948;6.988;2022-12-18T06:27:14;18.00;;;9.80;;
76574;SDS011;65439;50.948;6.988;2022-12-18T06:29:40;18.67;;;11.32;;
76574;SDS011;65439;50.948;6.988;2022-12-18T06:32:05;17.83;;;8.82;;
76574;SDS011;65439;50.948;6.988;2022-12-18T06:34:30;14.43;;;7.53;;
76574;SDS011;65439;50.948;6.988;2022-12-18T06:36:56;10.30;;;7.00;;
76574;SDS011;65439;50.948;6.988;2022-12-18T06:39:21;12.90;;;7.37;;
76574;SDS011;65439;50.948;6.988;2022-12-18T06:41:46;16.23;;;9.07;;
76574;SDS011;65439;50.948;6.988;2022-12-18T06:44:12;17.40;;;9.80;;
76574;SDS011;65439;50.948;6.988;2022-12-18T06:46:37;15.48;;;7.35;;
76574;SDS011;65439;50.948;6.988;2022-12-18T06:49:03;15.45;;;7.90;;
76574;SDS011;65439;50.948;6.988;2022-12-18T06:51:28;14.63;;;9.27;;
76574;SDS011;65439;50.948;6.988;2022-12-18T06:53:53;12.47;;;6.93;;
76574;SDS011;65439;50.948;6.988;2022-12-18T06:56:19;11.70;;;8.67;;
76574;SDS011;65439;50.948;6.988;2022-12-18T06:58:44;13.60;;;8.48;;
76574;SDS011;65439;50.948;6.988;2022-12-18T07:01:10;14.30;;;8.85;;
76574;SDS011;65439;50.948;6.988;2022-12-18T07:03:36;19.52;;;9.70;;
76574;SDS011;65439;50.948;6.988;2022-12-18T07:06:03;15.88;;;8.77;;
76574;SDS011;65439;50.948;6.988;2022-12-18T07:08:29;16.52;;;8.57;;
76574;SDS011;65439;50.948;6.988;2022-12-18T07:10:55;18.52;;;9.73;;
76574;SDS011;65439;50.948;6.988;2022-12-18T07:13:20;12.93;;;7.70;;
76574;SDS011;65439;50.948;6.988;2022-12-18T07:15:45;16.50;;;9.57;;
76574;SDS011;65439;50.948;6.988;2022-12-18T07:18:11;19.67;;;10.57;;
76574;SDS011;65439;50.948;6.988;2022-12-18T07:20:36;15.17;;;9.13;;
76574;SDS011;65439;50.948;6.988;2022-12-18T07:23:02;14.52;;;9.98;;
76574;SDS011;65439;50.948;6.988;2022-12-18T07:25:28;16.48;;;8.77;;
76574;SDS011;65439;50.948;6.988;2022-12-18T07:27:54;13.40;;;10.00;;
76574;SDS011;65439;50.948;6.988;2022-12-18T07:30:19;23.02;;;9.23;;
76574;SDS011;65439;50.948;6.988;2022-12-18T07:32:44;13.82;;;9.40;;
76574;SDS011;65439;50.948;6.988;2022-12-18T07:35:09;11.03;;;8.77;;
76574;SDS011;65439;50.948;6.988;2022-12-18T07:37:35;22.77;;;9.75;;
76574;SDS011;65439;50.948;6.988;2022-12-18T07:40:00;18.90;;;11.00;;
76574;SDS011;65439;50.948;6.988;2022-12-18T07:42:26;11.63;;;7.67;;
76574;SDS011;65439;50.948;6.988;2022-12-18T07:44:59;12.43;;;9.52;;
76574;SDS011;65439;50.948;6.988;2022-12-18T07:47:25;15.27;;;9.20;;
76574;SDS011;65439;50.948;6.988;2022-12-18T07:49:51;17.90;;;9.77;;
76574;SDS011;65439;50.948;6.988;2022-12-18T07:52:16;15.82;;;9.07;;
76574;SDS011;65439;50.948;6.988;2022-12-18T07:54:41;22.27;;;12.57;;
76574;SDS011;65439;50.948;6.988;2022-12-18T07:57:07;13.82;;;7.68;;
76574;SDS011;65439;50.948;6.988;2022-12-18T07:59:33;17.58;;;9.27;;
76574;SDS011;65439;50.948;6.988;2022-12-18T08:01:58;21.43;;;10.53;;
76574;SDS011;65439;50.948;6.988;2022-12-18T08:04:24;19.77;;;10.83;;
76574;SDS011;65439;50.948;6.988;2022-12-18T08:06:50;21.40;;;10.90;;
76574;SDS011;65439;50.948;6.988;2022-12-18T08:09:15;17.30;;;9.27;;
76574;SDS011;65439;50.948;6.988;2022-12-18T08:11:41;17.85;;;10.80;;
76574;SDS011;65439;50.948;6.988;2022-12-18T08:14:06;15.00;;;8.73;;
76574;SDS011;65439;50.948;6.988;2022-12-18T08:16:31;15.60;;;8.60;;
76574;SDS011;65439;50.948;6.988;2022-12-18T08:18:56;17.87;;;8.63;;
76574;SDS011;65439;50.948;6.988;2022-12-18T08:21:27;17.25;;;8.57;;
76574;SDS011;65439;50.948;6.988;2022-12-18T08:23:54;13.75;;;7.30;;
76574;SDS011;65439;50.948;6.988;2022-12-18T08:26:20;13.75;;;7.07;;
76574;SDS011;65439;50.948;6.988;2022-12-18T08:28:46;12.23;;;6.78;;
76574;SDS011;65439;50.948;6.988;2022-12-18T08:31:11;14.48;;;7.80;;
76574;SDS011;65439;50.948;6.988;2022-12-18T08:33:37;15.65;;;7.45;;
76574;SDS011;65439;50.948;6.988;2022-12-18T08:36:04;19.23;;;9.13;;
76574;SDS011;65439;50.948;6.988;2022-12-18T08:38:29;14.43;;;9.57;;
76574;SDS011;65439;50.948;6.988;2022-12-18T08:41:00;13.02;;;7.38;;
76574;SDS011;65439;50.948;6.988;2022-12-18T08:43:26;16.58;;;8.52;;
76574;SDS011;65439;50.948;6.988;2022-12-18T08:46:10;10.68;;;6.53;;
76574;SDS011;65439;50.948;6.988;2022-12-18T08:48:36;14.88;;;8.52;;
76574;SDS011;65439;50.948;6.988;2022-12-18T08:51:01;16.58;;;9.85;;
76574;SDS011;65439;50.948;6.988;2022-12-18T08:53:27;16.50;;;9.37;;
76574;SDS011;65439;50.948;6.988;2022-12-18T08:55:52;15.15;;;8.63;;
76574;SDS011;65439;50.948;6.988;2022-12-18T08:58:18;16.48;;;8.73;;
76574;SDS011;65439;50.948;6.988;2022-12-18T09:00:44;14.07;;;8.68;;
76574;SDS011;65439;50.948;6.988;2022-12-18T09:03:13;17.50;;;10.63;;
76574;SDS011;65439;50.948;6.988;2022-12-18T09:05:39;13.20;;;6.72;;
76574;SDS011;65439;50.948;6.988;2022-12-18T09:08:04;11.50;;;7.72;;
76574;SDS011;65439;50.948;6.988;2022-12-18T09:10:30;9.05;;;4.57;;
76574;SDS011;65439;50.948;6.988;2022-12-18T09:12:56;14.85;;;8.25;;
76574;SDS011;65439;50.948;6.988;2022-12-18T09:15:21;10.63;;;6.50;;
76574;SDS011;65439;50.948;6.988;2022-12-18T09:17:47;15.57;;;11.10;;
76574;SDS011;65439;50.948;6.988;2022-12-18T09:20:13;13.60;;;7.95;;
76574;SDS011;65439;50.948;6.988;2022-12-18T09:22:38;11.98;;;7.85;;
76574;SDS011;65439;50.948;6.988;2022-12-18T09:25:03;12.70;;;7.80;;
76574;SDS011;65439;50.948;6.988;2022-12-18T09:27:32;11.10;;;6.32;;
76574;SDS011;65439;50.948;6.988;2022-12-18T09:29:57;18.77;;;8.70;;
76574;SDS011;65439;50.948;6.988;2022-12-18T09:32:22;8.33;;;6.70;;
76574;SDS011;65439;50.948;6.988;2022-12-18T09:34:48;14.70;;;8.83;;
76574;SDS011;65439;50.948;6.988;2022-12-18T09:37:13;18.30;;;9.25;;
76574;SDS011;65439;50.948;6.988;2022-12-18T09:39:38;16.83;;;8.43;;
76574;SDS011;65439;50.948;6.988;2022-12-18T09:42:04;14.37;;;8.47;;
76574;SDS011;65439;50.948;6.988;2022-12-18T09:44:30;18.67;;;10.40;;
76574;SDS011;65439;50.948;6.988;2022-12-18T09:52:33;13.88;;;7.43;;
76574;SDS011;65439;50.948;6.988;2022-12-18T09:55:11;14.18;;;8.90;;
76574;SDS011;65439;50.948;6.988;2022-12-18T09:57:39;16.23;;;9.52;;
76574;SDS011;65439;50.948;6.988;2022-12-18T10:00:21;14.02;;;8.95;;
76574;SDS011;65439;50.948;6.988;2022-12-18T10:02:47;20.38;;;8.85;;
76574;SDS011;65439;50.948;6.988;2022-12-18T10:05:15;15.52;;;8.68;;
76574;SDS011;65439;50.948;6.988;2022-12-18T10:07:55;13.18;;;9.40;;
76574;SDS011;65439;50.948;6.988;2022-12-18T10:10:36;12.45;;;7.80;;
76574;SDS011;65439;50.948;6.988;2022-12-18T10:16:31;16.20;;;8.52;;
76574;SDS011;65439;50.948;6.988;2022-12-18T10:19:05;13.30;;;6.80;;
76574;SDS011;65439;50.948;6.988;2022-12-18T10:27:27;14.80;;;8.82;;
76574;SDS011;65439;50.948;6.988;2022-12-18T10:29:53;8.63;;;7.47;;
76574;SDS011;65439;50.948;6.988;2022-12-18T10:32:20;16.00;;;8.90;;
76574;SDS011;65439;50.948;6.988;2022-12-18T10:34:51;14.52;;;9.43;;
76574;SDS011;65439;50.948;6.988;2022-12-18T10:37:23;13.90;;;8.55;;
76574;SDS011;65439;50.948;6.988;2022-12-18T10:40:10;20.70;;;9.52;;
76574;SDS011;65439;50.948;6.988;2022-12-18T10:42:40;11.20;;;7.03;;
76574;SDS011;65439;50.948;6.988;2022-12-18T10:45:12;26.85;;;8.70;;
76574;SDS011;65439;50.948;6.988;2022-12-18T10:47:46;18.17;;;7.97;;
76574;SDS011;65439;50.948;6.988;2022-12-18T10:50:32;11.15;;;8.18;;
76574;SDS011;65439;50.948;6.988;2022-12-18T10:53:00;19.02;;;8.57;;
76574;SDS011;65439;50.948;6.988;2022-12-18T10:55:35;15.68;;;8.43;;
76574;SDS011;65439;50.948;6.988;2022-12-18T11:06:22;16.87;;;9.43;;
76574;SDS011;65439;50.948;6.988;2022-12-18T11:09:03;19.15;;;10.43;;
76574;SDS011;65439;50.948;6.988;2022-12-18T11:11:29;18.63;;;9.40;;
76574;SDS011;65439;50.948;6.988;2022-12-18T11:16:20;17.00;;;9.07;;
76574;SDS011;65439;50.948;6.988;2022-12-18T11:18:45;17.00;;;9.10;;
76574;SDS011;65439;50.948;6.988;2022-12-18T11:21:11;9.10;;;7.30;;
76574;SDS011;65439;50.948;6.988;2022-12-18T11:23:48;16.92;;;8.80;;
76574;SDS011;65439;50.948;6.988;2022-12-18T11:26:15;13.75;;;8.18;;
76574;SDS011;65439;50.948;6.988;2022-12-18T11:28:41;14.23;;;8.48;;
76574;SDS011;65439;50.948;6.988;2022-12-18T11:31:26;15.35;;;9.02;;
76574;SDS011;65439;50.948;6.988;2022-12-18T11:33:58;12.57;;;7.55;;
76574;SDS011;65439;50.948;6.988;2022-12-18T11:36:28;18.77;;;10.18;;
76574;SDS011;65439;50.948;6.988;2022-12-18T11:38:58;17.63;;;9.18;;
76574;SDS011;65439;50.948;6.988;2022-12-18T11:45:35;17.83;;;8.75;;
76574;SDS011;65439;50.948;6.988;2022-12-18T11:50:20;18.90;;;9.20;;
76574;SDS011;65439;50.948;6.988;2022-12-18T11:52:49;15.63;;;9.48;;
76574;SDS011;65439;50.948;6.988;2022-12-18T12:00:29;16.27;;;9.18;;
76574;SDS011;65439;50.948;6.988;2022-12-18T12:14:44;16.38;;;8.43;;
76574;SDS011;65439;50.948;6.988;2022-12-18T12:20:01;20.83;;;10.00;;
76574;SDS011;65439;50.948;6.988;2022-12-18T12:22:49;18.73;;;9.70;;
76574;SDS011;65439;50.948;6.988;2022-12-18T12:28:21;12.88;;;8.15;;
76574;SDS011;65439;50.948;6.988;2022-12-18T12:36:30;13.02;;;7.63;;
76574;SDS011;65439;50.948;6.988;2022-12-18T12:39:10;17.35;;;12.02;;
76574;SDS011;65439;50.948;6.988;2022-12-18T12:41:39;17.02;;;8.85;;
76574;SDS011;65439;50.948;6.988;2022-12-18T12:44:30;21.23;;;12.35;;
76574;SDS011;65439;50.948;6.988;2022-12-18T12:47:00;17.90;;;11.20;;
76574;SDS011;65439;50.948;6.988;2022-12-18T12:49:36;16.98;;;10.00;;
76574;SDS011;65439;50.948;6.988;2022-12-18T12:54:27;24.30;;;12.17;;
76574;SDS011;65439;50.948;6.988;2022-12-18T12:57:09;17.80;;;11.05;;
76574;SDS011;65439;50.948;6.988;2022-12-18T13:08:05;14.32;;;9.38;;
76574;SDS011;65439;50.948;6.988;2022-12-18T13:10:34;24.83;;;13.43;;
76574;SDS011;65439;50.948;6.988;2022-12-18T13:15:31;22.33;;;12.00;;
76574;SDS011;65439;50.948;6.988;2022-12-18T13:20:37;16.52;;;11.68;;
76574;SDS011;65439;50.948;6.988;2022-12-18T13:23:27;19.95;;;11.43;;
76574;SDS011;65439;50.948;6.988;2022-12-18T13:25:54;18.73;;;10.98;;
76574;SDS011;65439;50.948;6.988;2022-12-18T13:34:24;14.00;;;9.45;;
76574;SDS011;65439;50.948;6.988;2022-12-18T13:36:55;14.23;;;9.27;;
76574;SDS011;65439;50.948;6.988;2022-12-18T13:39:25;21.00;;;12.10;;
76574;SDS011;65439;50.948;6.988;2022-12-18T13:44:40;24.02;;;11.70;;
76574;SDS011;65439;50.948;6.988;2022-12-18T13:47:39;24.40;;;13.85;;
76574;SDS011;65439;50.948;6.988;2022-12-18T13:50:09;21.58;;;11.05;;
76574;SDS011;65439;50.948;6.988;2022-12-18T13:52:38;18.70;;;12.15;;
76574;SDS011;65439;50.948;6.988;2022-12-18T13:55:05;27.00;;;11.95;;
76574;SDS011;65439;50.948;6.988;2022-12-18T13:57:36;18.10;;;10.38;;
76574;SDS011;65439;50.948;6.988;2022-12-18T14:02:51;17.75;;;11.25;;
76574;SDS011;65439;50.948;6.988;2022-12-18T14:05:22;11.10;;;8.18;;
76574;SDS011;65439;50.948;6.988;2022-12-18T14:07:55;22.40;;;11.23;;
76574;SDS011;65439;50.948;6.988;2022-12-18T14:10:26;20.25;;;9.95;;
76574;SDS011;65439;50.948;6.988;2022-12-18T14:12:52;17.67;;;9.82;;
76574;SDS011;65439;50.948;6.988;2022-12-18T14:20:22;22.25;;;15.02;;
76574;SDS011;65439;50.948;6.988;2022-12-18T14:25:17;17.20;;;12.90;;
76574;SDS011;65439;50.948;6.988;2022-12-18T14:27:48;20.65;;;11.73;;
76574;SDS011;65439;50.948;6.988;2022-12-18T14:33:11;13.57;;;9.05;;
76574;SDS011;65439;50.948;6.988;2022-12-18T14:35:39;23.02;;;12.55;;
76574;SDS011;65439;50.948;6.988;2022-12-18T14:38:33;21.30;;;12.20;;
76574;SDS011;65439;50.948;6.988;2022-12-18T14:43:43;21.80;;;11.57;;
76574;SDS011;65439;50.948;6.988;2022-12-18T14:48:59;21.15;;;10.63;;
76574;SDS011;65439;50.948;6.988;2022-12-18T14:51:30;21.88;;;12.35;;
76574;SDS011;65439;50.948;6.988;2022-12-18T14:56:34;30.65;;;12.45;;
76574;SDS011;65439;50.948;6.988;2022-12-18T14:59:02;19.52;;;11.15;;
76574;SDS011;65439;50.948;6.988;2022-12-18T15:04:39;22.92;;;13.80;;
76574;SDS011;65439;50.948;6.988;2022-12-18T15:07:16;26.67;;;13.82;;
76574;SDS011;65439;50.948;6.988;2022-12-18T15:09:44;28.48;;;14.63;;
76574;SDS011;65439;50.948;6.988;2022-12-18T15:12:32;20.70;;;11.55;;
76574;SDS011;65439;50.948;6.988;2022-12-18T15:15:03;22.92;;;13.23;;
76574;SDS011;65439;50.948;6.988;2022-12-18T15:17:31;23.55;;;14.30;;
76574;SDS011;65439;50.948;6.988;2022-12-18T15:20:07;23.67;;;13.00;;
76574;SDS011;65439;50.948;6.988;2022-12-18T15:22:36;24.75;;;12.75;;
76574;SDS011;65439;50.948;6.988;2022-12-18T15:25:03;20.77;;;11.88;;
76574;SDS011;65439;50.948;6.988;2022-12-18T15:27:49;27.02;;;14.07;;
76574;SDS011;65439;50.948;6.988;2022-12-18T15:32:42;18.10;;;11.87;;
76574;SDS011;65439;50.948;6.988;2022-12-18T15:37:33;24.50;;;13.80;;
76574;SDS011;65439;50.948;6.988;2022-12-18T15:39:58;26.83;;;14.30;;
76574;SDS011;65439;50.948;6.988;2022-12-18T15:42:23;25.00;;;15.83;;
76574;SDS011;65439;50.948;6.988;2022-12-18T15:45:08;20.42;;;13.98;;
76574;SDS011;65439;50.948;6.988;2022-12-18T15:47:36;22.98;;;12.30;;
76574;SDS011;65439;50.948;6.988;2022-12-18T15:50:02;22.17;;;11.47;;
76574;SDS011;65439;50.948;6.988;2022-12-18T15:52:27;25.95;;;13.98;;
76574;SDS011;65439;50.948;6.988;2022-12-18T15:54:56;19.93;;;11.53;;
76574;SDS011;65439;50.948;6.988;2022-12-18T15:57:39;23.27;;;13.18;;
76574;SDS011;65439;50.948;6.988;2022-12-18T16:00:05;28.73;;;17.13;;
76574;SDS011;65439;50.948;6.988;2022-12-18T16:02:31;21.85;;;11.90;;
76574;SDS011;65439;50.948;6.988;2022-12-18T16:04:56;24.97;;;14.77;;
76574;SDS011;65439;50.948;6.988;2022-12-18T16:07:21;27.70;;;14.43;;
76574;SDS011;65439;50.948;6.988;2022-12-18T16:09:47;26.15;;;16.15;;
76574;SDS011;65439;50.948;6.988;2022-12-18T16:12:15;22.17;;;13.53;;
76574;SDS011;65439;50.948;6.988;2022-12-18T16:14:43;24.95;;;13.50;;
76574;SDS011;65439;50.948;6.988;2022-12-18T16:17:09;24.67;;;13.32;;
76574;SDS011;65439;50.948;6.988;2022-12-18T16:19:35;23.10;;;15.73;;
76574;SDS011;65439;50.948;6.988;2022-12-18T16:22:00;27.13;;;15.32;;
76574;SDS011;65439;50.948;6.988;2022-12-18T16:24:27;30.10;;;15.47;;
76574;SDS011;65439;50.948;6.988;2022-12-18T16:26:55;23.05;;;13.00;;
76574;SDS011;65439;50.948;6.988;2022-12-18T16:29:21;16.48;;;12.68;;
76574;SDS011;65439;50.948;6.988;2022-12-18T16:31:50;29.85;;;16.15;;
76574;SDS011;65439;50.948;6.988;2022-12-18T16:36:54;22.40;;;14.93;;
76574;SDS011;65439;50.948;6.988;2022-12-18T16:39:21;29.05;;;14.45;;
76574;SDS011;65439;50.948;6.988;2022-12-18T16:41:46;28.95;;;15.27;;
76574;SDS011;65439;50.948;6.988;2022-12-18T16:44:12;30.58;;;16.58;;
76574;SDS011;65439;50.948;6.988;2022-12-18T16:46:38;25.77;;;13.88;;
76574;SDS011;65439;50.948;6.988;2022-12-18T16:49:14;24.73;;;15.88;;
76574;SDS011;65439;50.948;6.988;2022-12-18T16:51:40;23.88;;;12.52;;
76574;SDS011;65439;50.948;6.988;2022-12-18T16:54:06;32.08;;;16.00;;
76574;SDS011;65439;50.948;6.988;2022-12-18T16:56:32;28.02;;;16.30;;
76574;SDS011;65439;50.948;6.988;2022-12-18T16:58:58;26.00;;;14.90;;
76574;SDS011;65439;50.948;6.988;2022-12-18T17:01:31;38.65;;;19.42;;